createdAt,value
2022-09-22T00:01:34.091Z,3.23
2022-09-22T00:04:07.790Z,2.53
2022-09-22T00:06:39.744Z,3.77
2022-09-22T00:09:10.370Z,3.50
2022-09-22T00:11:42.522Z,3.07
2022-09-22T00:14:12.968Z,4.60
2022-09-22T00:16:43.216Z,3.77
2022-09-22T00:19:13.828Z,3.60
2022-09-22T00:21:41.808Z,3.60
2022-09-22T00:24:10.145Z,3.53
2022-09-22T00:26:40.463Z,3.40
2022-09-22T00:29:09.881Z,4.17
2022-09-22T00:31:39.374Z,2.90
2022-09-22T00:34:08.542Z,3.47
2022-09-22T00:36:36.894Z,4.37
2022-09-22T00:39:05.188Z,3.73
2022-09-22T00:41:36.427Z,2.87
2022-09-22T00:44:31.624Z,2.83
2022-09-22T00:47:02.791Z,3.17
2022-09-22T00:49:37.993Z,2.53
2022-09-22T00:52:06.516Z,2.80
2022-09-22T00:54:35.629Z,3.40
2022-09-22T00:57:09.662Z,8.13
2022-09-22T00:59:40.045Z,3.00
2022-09-22T01:02:08.310Z,3.00
2022-09-22T01:04:37.130Z,3.17
2022-09-22T01:07:07.142Z,5.37
2022-09-22T01:09:35.311Z,4.90
2022-09-22T01:12:05.166Z,3.23
2022-09-22T01:14:50.898Z,3.17
2022-09-22T01:17:27.756Z,3.43
2022-09-22T01:20:19.837Z,3.63
2022-09-22T01:23:25.297Z,3.43
2022-09-22T01:26:15.437Z,3.77
2022-09-22T01:29:01.565Z,4.37
2022-09-22T01:31:38.979Z,3.20
2022-09-22T01:34:13.045Z,3.67
2022-09-22T01:36:48.174Z,3.70
2022-09-22T01:39:21.164Z,4.40
2022-09-22T01:41:54.956Z,3.53
2022-09-22T01:44:30.179Z,6.70
2022-09-22T01:47:06.454Z,4.97
2022-09-22T01:49:39.361Z,3.43
2022-09-22T01:52:13.126Z,3.07
2022-09-22T01:54:45.469Z,3.60
2022-09-22T01:57:18.946Z,3.70
2022-09-22T01:59:52.981Z,3.73
2022-09-22T02:02:28.044Z,3.77
2022-09-22T02:04:59.772Z,2.83
2022-09-22T02:07:31.129Z,3.30
2022-09-22T02:10:04.176Z,4.23
2022-09-22T02:12:32.482Z,2.90
2022-09-22T02:15:00.426Z,3.30
2022-09-22T02:17:34.975Z,3.20
2022-09-22T02:20:07.252Z,3.77
2022-09-22T02:22:35.906Z,4.40
2022-09-22T02:25:04.158Z,2.67
2022-09-22T02:27:37.000Z,3.30
2022-09-22T02:30:09.239Z,3.43
2022-09-22T02:32:42.594Z,3.30
2022-09-22T02:35:11.546Z,3.87
2022-09-22T02:37:45.476Z,3.60
2022-09-22T02:40:23.494Z,2.73
2022-09-22T02:43:00.886Z,4.03
2022-09-22T02:45:33.706Z,2.90
2022-09-22T02:48:07.000Z,3.10
2022-09-22T02:50:36.397Z,6.67
2022-09-22T02:53:12.574Z,2.37
2022-09-22T02:55:40.742Z,2.83
2022-09-22T02:58:08.758Z,4.47
2022-09-22T03:00:37.328Z,2.83
2022-09-22T03:03:06.743Z,4.30
2022-09-22T03:05:34.725Z,2.87
2022-09-22T03:08:03.255Z,3.20
2022-09-22T03:10:31.222Z,3.37
2022-09-22T03:13:16.030Z,3.27
2022-09-22T03:15:45.681Z,3.20
2022-09-22T03:18:15.454Z,3.60
2022-09-22T03:20:43.763Z,3.23
2022-09-22T03:23:11.872Z,3.57
2022-09-22T03:25:40.195Z,5.50
2022-09-22T03:28:08.333Z,3.00
2022-09-22T03:30:38.382Z,3.47
2022-09-22T03:33:06.420Z,3.10
2022-09-22T03:35:35.833Z,5.23
2022-09-22T03:38:03.947Z,3.70
2022-09-22T03:40:32.263Z,3.77
2022-09-22T03:43:00.387Z,3.63
2022-09-22T03:45:28.446Z,4.17
2022-09-22T03:47:56.599Z,5.13
2022-09-22T03:50:24.554Z,4.10
2022-09-22T03:52:53.936Z,5.97
2022-09-22T03:55:21.933Z,4.73
2022-09-22T03:57:49.904Z,4.37
2022-09-22T04:00:17.958Z,4.77
2022-09-22T04:02:46.177Z,4.67
2022-09-22T04:05:14.219Z,5.83
2022-09-22T04:07:42.215Z,4.47
2022-09-22T04:10:12.209Z,4.93
2022-09-22T04:12:40.238Z,4.93
2022-09-22T04:15:09.003Z,4.80
2022-09-22T04:17:37.888Z,5.97
2022-09-22T04:20:08.121Z,4.50
2022-09-22T04:22:36.210Z,6.03
2022-09-22T04:25:04.420Z,4.90
2022-09-22T04:27:33.797Z,6.87
2022-09-22T04:30:03.113Z,4.87
2022-09-22T04:32:31.167Z,4.33
2022-09-22T04:34:59.448Z,6.83
2022-09-22T04:37:27.478Z,4.93
2022-09-22T04:39:55.633Z,4.90
2022-09-22T04:42:23.867Z,5.50
2022-09-22T04:44:57.204Z,6.17
2022-09-22T04:47:25.226Z,5.83
2022-09-22T04:49:53.569Z,10.83
2022-09-22T04:52:21.571Z,5.33
2022-09-22T04:54:49.570Z,5.67
2022-09-22T04:57:20.480Z,8.27
2022-09-22T04:59:48.708Z,6.93
2022-09-22T05:02:18.521Z,4.77
2022-09-22T05:04:47.269Z,6.20
2022-09-22T05:07:16.349Z,7.10
2022-09-22T05:09:44.427Z,4.70
2022-09-22T05:12:12.394Z,4.47
2022-09-22T05:14:41.046Z,3.90
2022-09-22T05:17:10.079Z,4.37
2022-09-22T05:19:39.466Z,4.47
2022-09-22T05:22:07.419Z,5.47
2022-09-22T05:24:35.410Z,5.90
2022-09-22T05:27:04.790Z,5.37
2022-09-22T05:29:32.885Z,4.57
2022-09-22T05:32:01.117Z,4.80
2022-09-22T05:34:29.259Z,6.07
2022-09-22T05:36:59.036Z,5.17
2022-09-22T05:39:27.031Z,5.40
2022-09-22T05:41:55.007Z,4.50
2022-09-22T05:44:23.664Z,7.57
2022-09-22T05:46:51.980Z,5.53
2022-09-22T05:49:19.991Z,5.97
2022-09-22T05:51:48.520Z,5.13
2022-09-22T05:54:22.547Z,7.20
2022-09-22T05:56:51.238Z,6.07
2022-09-22T05:59:19.298Z,5.23
2022-09-22T06:01:47.322Z,7.00
2022-09-22T06:04:15.528Z,6.20
2022-09-22T06:06:43.616Z,8.10
2022-09-22T06:09:11.671Z,5.83
2022-09-22T06:11:41.080Z,9.60
2022-09-22T06:14:09.154Z,10.87
2022-09-22T06:16:37.199Z,5.83
2022-09-22T06:19:05.794Z,6.07
2022-09-22T06:21:33.930Z,6.27
2022-09-22T06:24:02.152Z,6.17
2022-09-22T06:26:30.165Z,4.53
2022-09-22T06:28:59.611Z,5.27
2022-09-22T06:31:27.738Z,6.30
2022-09-22T06:33:55.805Z,5.07
2022-09-22T06:36:30.492Z,4.20
2022-09-22T06:38:59.450Z,4.40
2022-09-22T06:41:27.546Z,5.87
2022-09-22T06:43:56.380Z,7.83
2022-09-22T06:46:27.300Z,5.00
2022-09-22T06:48:57.380Z,4.87
2022-09-22T06:51:26.968Z,8.70
2022-09-22T06:53:56.145Z,8.43
2022-09-22T06:56:25.815Z,7.43
2022-09-22T06:59:09.786Z,7.67
2022-09-22T07:01:44.567Z,5.00
2022-09-22T07:04:13.577Z,4.97
2022-09-22T07:06:42.739Z,4.07
2022-09-22T07:09:12.472Z,5.30
2022-09-22T07:11:40.751Z,4.17
2022-09-22T07:14:10.339Z,4.90
2022-09-22T07:16:41.052Z,4.30
2022-09-22T07:19:27.625Z,4.40
2022-09-22T07:21:55.756Z,5.83
2022-09-22T07:24:23.736Z,4.10
2022-09-22T07:26:51.753Z,3.47
2022-09-22T07:29:19.792Z,5.77
2022-09-22T07:31:49.299Z,4.70
2022-09-22T07:34:18.740Z,5.50
2022-09-22T07:36:47.267Z,4.83
2022-09-22T07:39:15.284Z,3.20
2022-09-22T07:41:43.729Z,3.77
2022-09-22T07:44:30.933Z,5.07
2022-09-22T07:47:01.048Z,5.13
2022-09-22T07:49:29.109Z,4.03
2022-09-22T07:51:57.807Z,6.20
2022-09-22T07:54:27.069Z,4.67
2022-09-22T07:56:58.810Z,4.30
2022-09-22T07:59:27.693Z,3.23
2022-09-22T08:01:56.153Z,9.33
2022-09-22T08:04:26.799Z,6.63
2022-09-22T08:06:56.559Z,4.10
2022-09-22T08:09:26.026Z,2.77
2022-09-22T08:11:55.181Z,3.37
2022-09-22T08:14:24.133Z,4.37
2022-09-22T08:16:54.061Z,3.67
2022-09-22T08:19:25.236Z,4.07
2022-09-22T08:21:55.618Z,4.00
2022-09-22T08:24:24.342Z,8.03
2022-09-22T08:26:56.369Z,2.97
2022-09-22T08:29:25.539Z,6.47
2022-09-22T08:31:54.742Z,2.93
2022-09-22T08:34:23.317Z,3.60
2022-09-22T08:36:52.813Z,2.70
2022-09-22T08:39:21.434Z,4.80
2022-09-22T08:42:04.289Z,5.03
2022-09-22T08:44:37.543Z,3.40
2022-09-22T08:47:06.329Z,11.17
2022-09-22T08:49:57.273Z,4.65
2022-09-22T08:52:32.988Z,4.13
2022-09-22T08:55:02.311Z,3.67
2022-09-22T08:58:01.937Z,4.73
2022-09-22T09:00:38.044Z,11.53
2022-09-22T09:03:27.905Z,4.17
2022-09-22T09:06:09.230Z,5.00
2022-09-22T09:09:15.351Z,2.53
2022-09-22T09:11:58.009Z,2.80
2022-09-22T09:14:43.873Z,6.77
2022-09-22T09:17:15.599Z,2.13
2022-09-22T09:19:46.247Z,4.00
2022-09-22T09:22:25.121Z,3.28
2022-09-22T09:27:53.480Z,4.80
2022-09-22T09:30:23.016Z,3.10
2022-09-22T09:32:54.343Z,2.60
2022-09-22T09:35:26.938Z,7.78
2022-09-22T09:37:59.634Z,4.70
2022-09-22T09:40:30.060Z,6.18
2022-09-22T09:43:03.369Z,2.53
2022-09-22T09:45:41.064Z,2.58
2022-09-22T09:48:22.321Z,1.77
2022-09-22T09:50:50.517Z,1.80
2022-09-22T09:53:31.399Z,2.05
2022-09-22T09:56:01.708Z,2.63
2022-09-22T09:58:47.400Z,5.53
2022-09-22T10:01:16.066Z,1.80
2022-09-22T10:03:48.328Z,1.45
2022-09-22T10:06:25.385Z,2.55
2022-09-22T10:08:53.726Z,2.40
2022-09-22T10:11:32.426Z,2.80
2022-09-22T10:14:00.704Z,2.70
2022-09-22T10:16:30.763Z,1.88
2022-09-22T10:19:25.697Z,1.70
2022-09-22T10:21:55.731Z,4.05
2022-09-22T10:24:32.667Z,2.25
2022-09-22T10:27:05.331Z,1.95
2022-09-22T10:29:35.859Z,3.10
2022-09-22T10:32:15.052Z,2.70
2022-09-22T10:37:22.055Z,1.63
2022-09-22T10:39:52.282Z,1.35
2022-09-22T10:42:29.149Z,2.35
2022-09-22T10:45:02.154Z,2.40
2022-09-22T10:47:54.547Z,2.38
2022-09-22T10:50:39.354Z,3.45
2022-09-22T10:53:31.259Z,3.08
2022-09-22T10:56:09.972Z,1.40
2022-09-22T10:58:56.610Z,2.53
2022-09-22T11:01:52.465Z,1.90
2022-09-22T11:04:39.923Z,1.45
2022-09-22T11:07:52.328Z,2.33
2022-09-22T11:10:49.317Z,2.70
2022-09-22T11:13:37.093Z,1.25
2022-09-22T11:16:28.260Z,1.10
2022-09-22T11:19:22.025Z,1.58
2022-09-22T11:22:04.150Z,1.80
2022-09-22T11:24:47.731Z,1.85
2022-09-22T11:27:27.278Z,2.08
2022-09-22T11:30:21.625Z,2.58
2022-09-22T11:33:26.860Z,1.48
2022-09-22T11:36:08.667Z,2.30
2022-09-22T11:38:58.626Z,1.67
2022-09-22T11:41:32.512Z,2.10
2022-09-22T11:44:15.048Z,1.67
2022-09-22T11:46:56.466Z,2.40
2022-09-22T11:49:36.515Z,1.80
2022-09-22T11:52:18.742Z,2.75
2022-09-22T11:55:07.244Z,1.48
2022-09-22T11:57:40.682Z,3.97
2022-09-22T12:00:15.464Z,2.67
2022-09-22T12:02:50.011Z,1.23
2022-09-22T12:05:27.022Z,1.80
2022-09-22T12:08:00.736Z,1.20
2022-09-22T12:10:35.810Z,2.05
2022-09-22T12:13:05.319Z,0.98
2022-09-22T12:15:42.918Z,1.00
2022-09-22T12:18:16.604Z,3.25
2022-09-22T12:20:56.276Z,1.80
2022-09-22T12:23:44.224Z,1.83
2022-09-22T12:26:16.498Z,3.00
2022-09-22T12:28:46.775Z,1.55
2022-09-22T12:31:16.401Z,3.65
2022-09-22T12:33:50.378Z,2.92
2022-09-22T12:36:29.861Z,5.57
2022-09-22T12:39:09.828Z,4.15
2022-09-22T12:41:48.735Z,2.28
2022-09-22T12:44:22.919Z,2.53
2022-09-22T12:46:52.158Z,1.10
2022-09-22T12:49:23.202Z,2.67
2022-09-22T12:51:53.754Z,1.75
2022-09-22T12:54:40.791Z,4.20
2022-09-22T12:57:45.995Z,1.95
2022-09-22T13:00:23.075Z,1.77
2022-09-22T13:02:51.579Z,1.83
2022-09-22T13:05:46.867Z,1.52
2022-09-22T13:08:24.726Z,1.30
2022-09-22T13:10:57.245Z,3.30
2022-09-22T13:13:36.754Z,2.55
2022-09-22T13:16:27.184Z,1.77
2022-09-22T13:19:01.580Z,1.65
2022-09-22T13:21:32.529Z,2.10
2022-09-22T13:24:02.783Z,1.95
2022-09-22T13:26:32.912Z,2.13
2022-09-22T13:29:11.215Z,1.77
2022-09-22T13:31:41.899Z,1.55
2022-09-22T13:34:31.711Z,0.82
2022-09-22T13:37:01.944Z,1.20
2022-09-22T13:39:35.422Z,1.05
2022-09-22T13:42:08.321Z,1.02
2022-09-22T13:44:41.982Z,1.45
2022-09-22T13:47:18.306Z,1.27
2022-09-22T13:49:51.414Z,1.35
2022-09-22T13:52:22.915Z,0.90
2022-09-22T13:54:57.515Z,1.42
2022-09-22T13:57:29.883Z,1.30
2022-09-22T14:00:00.168Z,1.75
2022-09-22T14:02:32.595Z,1.40
2022-09-22T14:05:05.737Z,2.63
2022-09-22T14:07:45.133Z,1.55
2022-09-22T14:10:23.791Z,1.25
2022-09-22T14:12:52.306Z,2.10
2022-09-22T14:15:43.779Z,1.05
2022-09-22T14:18:26.327Z,2.38
2022-09-22T14:20:57.997Z,1.70
2022-09-22T14:23:29.450Z,1.70
2022-09-22T14:25:59.258Z,1.40
2022-09-22T14:28:30.899Z,2.97
2022-09-22T14:30:59.044Z,2.45
2022-09-22T14:33:31.085Z,0.70
2022-09-22T14:36:03.948Z,0.60
2022-09-22T14:38:43.054Z,1.50
2022-09-22T14:41:23.341Z,1.25
2022-09-22T14:43:53.366Z,1.00
2022-09-22T14:46:33.787Z,1.08
2022-09-22T14:49:19.239Z,1.00
2022-09-22T14:51:49.605Z,1.38
2022-09-22T14:54:18.862Z,3.22
2022-09-22T14:56:46.935Z,1.83
2022-09-22T14:59:32.682Z,2.15
2022-09-22T15:02:18.075Z,1.30
2022-09-22T15:04:51.857Z,2.10
2022-09-22T15:07:29.264Z,1.48
2022-09-22T15:09:59.220Z,3.90
2022-09-22T15:12:49.778Z,1.05
2022-09-22T15:15:21.186Z,1.55
2022-09-22T15:18:07.938Z,0.85
2022-09-22T15:20:44.195Z,1.75
2022-09-22T15:23:19.102Z,3.10
2022-09-22T15:25:47.930Z,2.75
2022-09-22T15:28:17.820Z,4.43
2022-09-22T15:30:47.723Z,7.53
2022-09-22T15:33:17.113Z,1.92
2022-09-22T15:35:47.632Z,2.90
2022-09-22T15:38:20.359Z,4.97
2022-09-22T15:40:49.213Z,3.17
2022-09-22T15:43:23.265Z,2.38
2022-09-22T15:46:01.372Z,2.60
2022-09-22T15:48:32.274Z,3.60
2022-09-22T15:51:04.574Z,1.35
2022-09-22T15:53:34.755Z,7.80
2022-09-22T15:56:06.005Z,4.55
2022-09-22T15:58:37.881Z,3.63
2022-09-22T16:01:08.080Z,3.92
2022-09-22T16:03:41.058Z,6.97
2022-09-22T16:06:13.536Z,6.32
2022-09-22T16:08:44.785Z,6.88
2022-09-22T16:11:14.686Z,4.00
2022-09-22T16:13:43.038Z,3.45
2022-09-22T16:16:12.715Z,2.78
2022-09-22T16:18:42.202Z,2.45
2022-09-22T16:21:20.132Z,7.72
2022-09-22T16:23:49.777Z,4.07
2022-09-22T16:26:17.876Z,7.60
2022-09-22T16:28:45.984Z,13.52
2022-09-22T16:31:15.753Z,12.02
2022-09-22T16:33:44.276Z,10.20
2022-09-22T16:36:12.361Z,10.95
2022-09-22T16:38:40.684Z,8.65
2022-09-22T16:41:20.062Z,13.23
2022-09-22T16:43:48.203Z,12.82
2022-09-22T16:46:30.422Z,7.57
2022-09-22T16:49:00.554Z,5.27
2022-09-22T16:51:29.509Z,5.23
2022-09-22T16:54:01.443Z,8.50
2022-09-22T16:56:33.158Z,6.47
2022-09-22T16:59:03.146Z,6.77
2022-09-22T17:01:32.353Z,5.10
2022-09-22T17:04:00.736Z,10.47
2022-09-22T17:06:29.639Z,6.90
2022-09-22T17:08:59.975Z,7.90
2022-09-22T17:11:38.156Z,5.80
2022-09-22T17:14:12.137Z,6.20
2022-09-22T17:16:43.949Z,6.77
2022-09-22T17:19:16.683Z,8.15
2022-09-22T17:21:46.174Z,8.73
2022-09-22T17:24:14.984Z,5.23
2022-09-22T17:26:48.560Z,6.03
2022-09-22T17:29:17.525Z,15.25
2022-09-22T17:31:48.637Z,12.15
2022-09-22T17:34:17.305Z,8.03
2022-09-22T17:36:45.423Z,8.73
2022-09-22T17:39:14.268Z,7.60
2022-09-22T17:41:45.611Z,6.77
2022-09-22T17:44:21.489Z,8.70
2022-09-22T17:47:08.005Z,7.40
2022-09-22T17:49:53.614Z,5.37
2022-09-22T17:52:39.063Z,10.57
2022-09-22T17:55:14.280Z,3.03
2022-09-22T17:57:44.395Z,4.80
2022-09-22T18:00:19.837Z,7.37
2022-09-22T18:02:49.447Z,6.07
2022-09-22T18:05:20.847Z,5.60
2022-09-22T18:07:53.482Z,5.43
2022-09-22T18:10:22.225Z,4.97
2022-09-22T18:12:50.702Z,3.63
2022-09-22T18:15:20.343Z,6.67
2022-09-22T18:17:49.493Z,9.73
2022-09-22T18:20:20.873Z,8.30
2022-09-22T18:22:50.712Z,7.30
2022-09-22T18:25:23.282Z,6.93
2022-09-22T18:27:52.803Z,4.77
2022-09-22T18:30:22.502Z,5.70
2022-09-22T18:32:50.735Z,5.93
2022-09-22T18:35:18.955Z,6.13
2022-09-22T18:37:47.105Z,3.67
2022-09-22T18:40:17.483Z,5.57
2022-09-22T18:42:46.255Z,5.17
2022-09-22T18:45:15.386Z,6.60
2022-09-22T18:47:47.335Z,11.00
2022-09-22T18:50:16.117Z,8.93
2022-09-22T18:52:45.989Z,5.30
2022-09-22T18:55:19.581Z,6.67
2022-09-22T18:57:48.738Z,7.03
2022-09-22T19:00:21.273Z,8.70
2022-09-22T19:02:51.261Z,10.87
2022-09-22T19:05:23.372Z,9.73
2022-09-22T19:07:51.535Z,7.33
2022-09-22T19:10:21.935Z,10.97
2022-09-22T19:12:50.962Z,11.17
2022-09-22T19:15:19.863Z,7.53
2022-09-22T19:17:50.695Z,6.90
2022-09-22T19:20:22.655Z,7.27
2022-09-22T19:22:52.560Z,4.80
2022-09-22T19:25:21.727Z,5.10
2022-09-22T19:27:50.480Z,6.87
2022-09-22T19:30:22.862Z,4.60
2022-09-22T19:32:54.980Z,7.10
2022-09-22T19:35:23.216Z,9.07
2022-09-22T19:37:51.905Z,5.83
2022-09-22T19:40:20.439Z,4.77
2022-09-22T19:42:49.894Z,6.97
2022-09-22T19:45:19.846Z,5.07
2022-09-22T19:47:48.154Z,9.23
2022-09-22T19:50:22.497Z,4.70
2022-09-22T19:52:50.864Z,5.80
2022-09-22T19:55:21.150Z,7.07
2022-09-22T19:57:52.432Z,3.83
2022-09-22T20:00:26.289Z,3.27
2022-09-22T20:02:58.811Z,4.40
2022-09-22T20:05:31.585Z,3.60
2022-09-22T20:07:59.581Z,3.37
2022-09-22T20:10:27.701Z,3.37
2022-09-22T20:12:55.835Z,3.77
2022-09-22T20:15:24.086Z,3.40
2022-09-22T20:17:52.439Z,3.00
2022-09-22T20:20:23.756Z,4.53
2022-09-22T20:23:00.439Z,3.93
2022-09-22T20:25:31.464Z,4.13
2022-09-22T20:28:00.755Z,3.43
2022-09-22T20:30:28.987Z,4.63
2022-09-22T20:32:57.084Z,3.93
2022-09-22T20:35:25.409Z,6.50
2022-09-22T20:37:59.921Z,3.87
2022-09-22T20:40:29.222Z,3.67
2022-09-22T20:42:57.984Z,5.57
2022-09-22T20:45:26.364Z,3.30
2022-09-22T20:47:56.330Z,4.00
2022-09-22T20:50:24.847Z,3.73
2022-09-22T20:52:55.586Z,5.97
2022-09-22T20:55:23.937Z,4.47
2022-09-22T20:57:52.601Z,5.37
2022-09-22T21:00:20.977Z,5.27
2022-09-22T21:02:49.429Z,4.37
2022-09-22T21:05:18.724Z,5.63
2022-09-22T21:07:46.877Z,4.00
2022-09-22T21:10:34.146Z,5.20
2022-09-22T21:13:04.079Z,3.93
2022-09-22T21:15:32.552Z,3.10
2022-09-22T21:18:00.844Z,3.13
2022-09-22T21:20:28.989Z,2.83
2022-09-22T21:22:57.116Z,3.27
2022-09-22T21:25:26.722Z,4.90
2022-09-22T21:27:54.888Z,5.17
2022-09-22T21:30:23.146Z,3.20
2022-09-22T21:32:51.428Z,3.77
2022-09-22T21:35:20.312Z,3.50
2022-09-22T21:37:48.512Z,4.63
2022-09-22T21:40:18.218Z,5.13
2022-09-22T21:42:47.781Z,5.37
2022-09-22T21:45:16.006Z,5.67
2022-09-22T21:47:44.713Z,4.73
2022-09-22T21:50:12.926Z,5.03
2022-09-22T21:52:40.999Z,5.57
2022-09-22T21:55:09.875Z,6.67
2022-09-22T21:57:37.865Z,6.10
2022-09-22T22:00:09.438Z,6.23
2022-09-22T22:02:57.989Z,5.37
2022-09-22T22:05:27.410Z,4.50
2022-09-22T22:07:55.599Z,5.57
2022-09-22T22:10:24.256Z,4.87
2022-09-22T22:12:52.744Z,3.90
2022-09-22T22:15:23.490Z,5.80
2022-09-22T22:17:51.534Z,3.57
2022-09-22T22:20:19.656Z,6.03
2022-09-22T22:22:47.979Z,4.13
2022-09-22T22:25:17.407Z,3.53
2022-09-22T22:27:45.950Z,5.63
2022-09-22T22:30:14.570Z,4.03
2022-09-22T22:32:44.215Z,4.10
2022-09-22T22:35:12.869Z,5.70
2022-09-22T22:37:40.861Z,5.23
2022-09-22T22:40:09.588Z,5.77
2022-09-22T22:42:37.736Z,3.47
2022-09-22T22:45:06.610Z,4.10
2022-09-22T22:47:35.003Z,4.27
2022-09-22T22:50:04.480Z,6.27
2022-09-22T22:52:32.512Z,4.17
2022-09-22T22:55:00.778Z,4.73
2022-09-22T22:57:29.167Z,7.23
2022-09-22T22:59:58.203Z,4.37
2022-09-22T23:02:26.321Z,3.83
2022-09-22T23:04:54.452Z,4.43
2022-09-22T23:07:23.891Z,5.93
2022-09-22T23:10:06.797Z,4.10
2022-09-22T23:12:35.305Z,5.37
2022-09-22T23:15:03.382Z,6.33
2022-09-22T23:17:32.085Z,4.60
2022-09-22T23:20:00.083Z,4.93
2022-09-22T23:22:30.678Z,5.03
2022-09-22T23:24:59.409Z,8.50
2022-09-22T23:27:28.461Z,6.17
2022-09-22T23:29:57.265Z,7.17
2022-09-22T23:32:25.689Z,4.30
2022-09-22T23:34:53.703Z,7.50
2022-09-22T23:37:21.731Z,6.87
2022-09-22T23:39:51.080Z,5.20
2022-09-22T23:42:19.059Z,4.23
2022-09-22T23:44:47.132Z,4.03
2022-09-22T23:47:16.392Z,5.03
2022-09-22T23:49:45.106Z,4.57
2022-09-22T23:52:13.158Z,5.20
2022-09-22T23:54:41.119Z,3.90
2022-09-22T23:57:10.751Z,4.97
2022-09-22T23:59:38.765Z,5.70
